createdAt,value
2023-02-17T00:01:33.452Z,44.30
2023-02-17T00:04:01.610Z,44.42
2023-02-17T00:06:30.904Z,44.28
2023-02-17T00:09:00.330Z,44.25
2023-02-17T00:11:30.973Z,44.15
2023-02-17T00:14:00.182Z,44.30
2023-02-17T00:16:29.729Z,44.06
2023-02-17T00:19:00.874Z,44.09
2023-02-17T00:21:31.423Z,44.16
2023-02-17T00:24:03.103Z,44.07
2023-02-17T00:26:30.732Z,44.59
2023-02-17T00:28:59.125Z,44.42
2023-02-17T00:31:27.143Z,44.25
2023-02-17T00:33:56.217Z,44.02
2023-02-17T00:36:25.652Z,43.94
2023-02-17T00:38:55.983Z,44.03
2023-02-17T00:41:26.390Z,43.87
2023-02-17T00:43:54.248Z,43.85
2023-02-17T00:46:23.888Z,43.77
2023-02-17T00:48:53.914Z,43.74
2023-02-17T00:51:22.425Z,43.77
2023-02-17T00:53:50.716Z,43.57
2023-02-17T00:56:18.528Z,43.69
2023-02-17T00:58:48.234Z,43.55
2023-02-17T01:01:16.313Z,43.40
2023-02-17T01:03:44.171Z,43.51
2023-02-17T01:06:27.800Z,43.22
2023-02-17T01:08:56.131Z,43.41
2023-02-17T01:11:29.230Z,43.53
2023-02-17T01:14:00.877Z,43.38
2023-02-17T01:16:35.148Z,43.40
2023-02-17T01:19:10.083Z,43.41
2023-02-17T01:21:38.349Z,43.61
2023-02-17T01:24:08.320Z,43.64
2023-02-17T01:26:37.437Z,43.69
2023-02-17T01:29:07.602Z,43.67
2023-02-17T01:31:36.159Z,43.84
2023-02-17T01:34:05.705Z,43.96
2023-02-17T01:36:33.756Z,43.90
2023-02-17T01:39:01.517Z,43.79
2023-02-17T01:41:29.699Z,43.93
2023-02-17T01:44:21.949Z,43.67
2023-02-17T01:46:53.152Z,43.93
2023-02-17T01:49:39.347Z,43.80
2023-02-17T01:52:15.024Z,43.81
2023-02-17T01:54:58.180Z,43.75
2023-02-17T01:57:32.856Z,43.72
2023-02-17T02:00:00.753Z,43.72
2023-02-17T02:02:31.021Z,43.63
2023-02-17T02:05:00.257Z,43.77
2023-02-17T02:07:34.253Z,43.66
2023-02-17T02:10:03.650Z,43.78
2023-02-17T02:12:36.656Z,43.85
2023-02-17T02:15:24.617Z,43.96
2023-02-17T02:18:10.297Z,44.05
2023-02-17T02:21:16.130Z,44.01
2023-02-17T02:23:59.762Z,44.21
2023-02-17T02:26:30.545Z,44.30
2023-02-17T02:29:49.533Z,44.09
2023-02-17T02:33:03.083Z,44.59
2023-02-17T02:35:57.904Z,44.42
2023-02-17T02:39:04.216Z,44.54
2023-02-17T02:41:50.801Z,44.77
2023-02-17T02:44:21.499Z,44.90
2023-02-17T02:47:27.533Z,45.19
2023-02-17T02:49:55.670Z,45.57
2023-02-17T02:52:44.166Z,45.54
2023-02-17T02:56:20.494Z,45.80
2023-02-17T02:58:58.841Z,45.88
2023-02-17T03:02:04.078Z,45.94
2023-02-17T03:04:49.301Z,45.98
2023-02-17T03:07:26.136Z,45.96
2023-02-17T03:09:57.754Z,45.88
2023-02-17T03:12:27.103Z,45.98
2023-02-17T03:15:08.385Z,45.92
2023-02-17T03:17:36.295Z,46.26
2023-02-17T03:20:06.033Z,46.14
2023-02-17T03:22:40.677Z,46.29
2023-02-17T03:25:09.210Z,46.36
2023-02-17T03:27:37.433Z,46.38
2023-02-17T03:30:06.536Z,46.48
2023-02-17T03:32:34.573Z,46.63
2023-02-17T03:35:02.997Z,46.79
2023-02-17T03:37:31.251Z,46.67
2023-02-17T03:39:59.218Z,46.97
2023-02-17T03:42:27.021Z,47.14
2023-02-17T03:44:54.762Z,46.95
2023-02-17T03:47:22.570Z,46.89
2023-02-17T03:49:52.178Z,47.17
2023-02-17T03:52:20.011Z,47.57
2023-02-17T03:54:47.797Z,47.55
2023-02-17T03:57:16.010Z,47.47
2023-02-17T03:59:43.762Z,47.49
2023-02-17T04:02:11.603Z,47.97
2023-02-17T04:04:39.368Z,47.81
2023-02-17T04:07:07.309Z,48.03
2023-02-17T04:09:35.217Z,48.38
2023-02-17T04:12:03.099Z,48.38
2023-02-17T04:14:31.028Z,48.55
2023-02-17T04:16:59.004Z,48.65
2023-02-17T04:19:26.974Z,48.82
2023-02-17T04:21:54.709Z,48.81
2023-02-17T04:24:22.499Z,49.08
2023-02-17T04:26:50.183Z,49.05
2023-02-17T04:29:18.077Z,49.40
2023-02-17T04:31:45.937Z,49.38
2023-02-17T04:34:13.897Z,49.45
2023-02-17T04:36:44.227Z,49.79
2023-02-17T04:39:12.153Z,49.72
2023-02-17T04:41:40.105Z,49.96
2023-02-17T04:44:07.870Z,49.82
2023-02-17T04:46:35.706Z,50.05
2023-02-17T04:49:03.724Z,50.19
2023-02-17T04:51:31.457Z,50.36
2023-02-17T04:53:59.384Z,50.56
2023-02-17T04:56:27.166Z,50.47
2023-02-17T04:58:54.967Z,50.61
2023-02-17T05:01:22.731Z,51.01
2023-02-17T05:03:56.526Z,51.07
2023-02-17T05:06:24.233Z,50.98
2023-02-17T05:08:53.644Z,51.22
2023-02-17T05:11:21.397Z,50.93
2023-02-17T05:13:49.122Z,50.95
2023-02-17T05:16:16.915Z,50.72
2023-02-17T05:18:45.065Z,50.78
2023-02-17T05:21:13.117Z,50.62
2023-02-17T05:23:41.402Z,50.50
2023-02-17T05:26:09.650Z,50.42
2023-02-17T05:28:37.955Z,50.27
2023-02-17T05:31:06.619Z,50.24
2023-02-17T05:33:34.598Z,50.24
2023-02-17T05:36:08.404Z,50.02
2023-02-17T05:38:37.407Z,50.06
2023-02-17T05:41:05.803Z,50.09
2023-02-17T05:43:33.800Z,49.98
2023-02-17T05:46:05.991Z,49.76
2023-02-17T05:48:34.428Z,50.02
2023-02-17T05:51:02.295Z,49.89
2023-02-17T05:53:30.860Z,49.93
2023-02-17T05:55:58.843Z,50.02
2023-02-17T05:58:27.405Z,50.11
2023-02-17T06:00:55.246Z,50.13
2023-02-17T06:03:23.704Z,50.29
2023-02-17T06:05:51.498Z,50.41
2023-02-17T06:08:19.408Z,50.42
2023-02-17T06:10:47.163Z,50.64
2023-02-17T06:13:14.882Z,50.69
2023-02-17T06:15:42.901Z,50.67
2023-02-17T06:18:10.607Z,50.86
2023-02-17T06:20:38.602Z,50.96
2023-02-17T06:23:06.378Z,51.06
2023-02-17T06:25:34.216Z,51.14
2023-02-17T06:28:01.893Z,51.04
2023-02-17T06:30:30.483Z,51.06
2023-02-17T06:32:59.298Z,51.11
2023-02-17T06:35:27.044Z,51.00
2023-02-17T06:37:54.868Z,51.13
2023-02-17T06:40:28.801Z,51.19
2023-02-17T06:42:56.750Z,51.34
2023-02-17T06:45:24.436Z,51.31
2023-02-17T06:47:52.469Z,51.43
2023-02-17T06:50:21.555Z,51.48
2023-02-17T06:52:49.286Z,51.45
2023-02-17T06:55:20.045Z,51.36
2023-02-17T06:57:48.044Z,51.53
2023-02-17T07:00:16.179Z,51.50
2023-02-17T07:02:44.152Z,51.56
2023-02-17T07:05:12.106Z,51.33
2023-02-17T07:07:39.789Z,51.69
2023-02-17T07:10:08.867Z,51.58
2023-02-17T07:12:36.565Z,51.61
2023-02-17T07:15:04.879Z,51.38
2023-02-17T07:17:32.676Z,51.40
2023-02-17T07:20:00.788Z,51.31
2023-02-17T07:22:28.561Z,51.25
2023-02-17T07:24:56.285Z,51.30
2023-02-17T07:27:23.967Z,51.11
2023-02-17T07:29:51.736Z,51.13
2023-02-17T07:32:19.615Z,51.11
2023-02-17T07:34:47.561Z,51.13
2023-02-17T07:37:15.320Z,51.06
2023-02-17T07:39:43.507Z,51.18
2023-02-17T07:42:11.576Z,51.04
2023-02-17T07:44:40.171Z,51.19
2023-02-17T07:47:08.058Z,51.28
2023-02-17T07:49:35.982Z,51.32
2023-02-17T07:52:05.616Z,51.27
2023-02-17T07:54:33.541Z,51.42
2023-02-17T07:57:03.577Z,51.41
2023-02-17T07:59:31.383Z,51.52
2023-02-17T08:01:59.272Z,51.55
2023-02-17T08:04:27.586Z,51.65
2023-02-17T08:06:55.785Z,51.74
2023-02-17T08:09:42.413Z,51.82
2023-02-17T08:12:37.841Z,51.65
2023-02-17T08:15:09.419Z,51.90
2023-02-17T08:17:37.650Z,51.74
2023-02-17T08:20:09.016Z,51.80
2023-02-17T08:22:37.485Z,52.00
2023-02-17T08:25:06.279Z,52.10
2023-02-17T08:27:34.551Z,51.96
2023-02-17T08:30:02.664Z,52.36
2023-02-17T08:32:30.459Z,52.28
2023-02-17T08:34:59.214Z,52.41
2023-02-17T08:37:27.039Z,52.40
2023-02-17T08:39:55.892Z,52.52
2023-02-17T08:42:24.887Z,52.38
2023-02-17T08:44:52.669Z,52.50
2023-02-17T08:47:20.484Z,52.44
2023-02-17T08:49:48.230Z,52.42
2023-02-17T08:52:16.252Z,52.50
2023-02-17T08:54:44.652Z,52.43
2023-02-17T08:57:34.808Z,52.49
2023-02-17T09:00:08.929Z,52.51
2023-02-17T09:02:37.621Z,52.47
2023-02-17T09:05:06.368Z,52.46
2023-02-17T09:07:36.669Z,52.41
2023-02-17T09:10:08.966Z,52.34
2023-02-17T09:12:40.807Z,52.64
2023-02-17T09:15:09.852Z,52.72
2023-02-17T09:17:41.793Z,52.73
2023-02-17T09:20:23.857Z,53.24
2023-02-17T09:22:53.860Z,53.10
2023-02-17T09:25:21.773Z,53.44
2023-02-17T09:27:49.982Z,53.46
2023-02-17T09:30:17.832Z,53.50
2023-02-17T09:32:45.893Z,53.63
2023-02-17T09:35:16.413Z,53.71
2023-02-17T09:37:44.761Z,53.74
2023-02-17T09:40:47.255Z,53.81
2023-02-17T09:43:25.338Z,54.05
2023-02-17T09:46:02.091Z,53.80
2023-02-17T09:48:32.965Z,53.88
2023-02-17T09:51:26.639Z,53.67
2023-02-17T09:54:13.694Z,53.50
2023-02-17T09:56:46.141Z,53.44
2023-02-17T09:59:27.687Z,53.61
2023-02-17T10:01:56.897Z,53.45
2023-02-17T10:04:39.683Z,53.51
2023-02-17T10:07:17.821Z,53.45
2023-02-17T10:09:59.834Z,53.44
2023-02-17T10:12:37.316Z,53.57
2023-02-17T10:15:13.467Z,53.46
2023-02-17T10:17:59.488Z,53.31
2023-02-17T10:20:58.306Z,53.09
2023-02-17T10:23:29.368Z,53.29
2023-02-17T10:26:34.396Z,53.00
2023-02-17T10:29:14.561Z,53.04
2023-02-17T10:31:54.684Z,53.00
2023-02-17T10:34:34.264Z,52.97
2023-02-17T10:37:24.893Z,52.69
2023-02-17T10:39:57.185Z,52.58
2023-02-17T10:42:34.566Z,52.36
2023-02-17T10:45:24.785Z,52.30
2023-02-17T10:48:17.295Z,52.20
2023-02-17T10:50:47.076Z,52.31
2023-02-17T10:53:25.112Z,52.14
2023-02-17T10:56:10.363Z,51.96
2023-02-17T10:59:00.438Z,51.77
2023-02-17T11:01:29.908Z,51.84
2023-02-17T11:04:07.551Z,51.67
2023-02-17T11:06:55.554Z,51.27
2023-02-17T11:09:33.257Z,51.47
2023-02-17T11:12:20.964Z,51.27
2023-02-17T11:14:55.977Z,51.08
2023-02-17T11:17:39.580Z,51.06
2023-02-17T11:20:27.229Z,51.13
2023-02-17T11:23:14.688Z,51.00
2023-02-17T11:25:54.416Z,50.93
2023-02-17T11:28:28.318Z,50.72
2023-02-17T11:31:02.441Z,50.71
2023-02-17T11:33:33.372Z,50.63
2023-02-17T11:36:02.701Z,50.58
2023-02-17T11:38:49.068Z,50.28
2023-02-17T11:41:17.546Z,50.48
2023-02-17T11:44:00.096Z,50.01
2023-02-17T11:46:39.816Z,50.69
2023-02-17T11:49:38.995Z,50.42
2023-02-17T11:52:29.046Z,50.41
2023-02-17T11:55:02.480Z,50.32
2023-02-17T11:57:39.286Z,50.41
2023-02-17T12:00:31.828Z,50.56
2023-02-17T12:03:17.480Z,50.57
2023-02-17T12:06:13.307Z,50.87
2023-02-17T12:09:25.279Z,51.00
2023-02-17T12:12:05.799Z,50.97
2023-02-17T12:14:57.727Z,51.07
2023-02-17T12:17:58.728Z,51.04
2023-02-17T12:20:57.409Z,51.16
2023-02-17T12:23:42.304Z,51.33
2023-02-17T12:26:34.745Z,51.25
2023-02-17T12:29:08.551Z,51.24
2023-02-17T12:32:13.339Z,51.18
2023-02-17T12:35:03.849Z,51.38
2023-02-17T12:37:38.628Z,51.43
2023-02-17T12:40:36.418Z,51.24
2023-02-17T12:43:32.182Z,51.36
2023-02-17T12:46:04.744Z,51.46
2023-02-17T12:48:47.543Z,51.08
2023-02-17T12:51:33.488Z,51.19
2023-02-17T12:54:22.777Z,51.04
2023-02-17T12:57:11.400Z,51.08
2023-02-17T12:59:46.926Z,51.32
2023-02-17T13:02:23.594Z,51.56
2023-02-17T13:05:00.723Z,51.28
2023-02-17T13:07:51.599Z,51.39
2023-02-17T13:10:39.016Z,51.44
2023-02-17T13:13:10.583Z,51.28
2023-02-17T13:15:44.911Z,51.68
2023-02-17T13:18:26.734Z,51.50
2023-02-17T13:21:17.647Z,51.34
2023-02-17T13:24:00.750Z,51.35
2023-02-17T13:26:31.655Z,51.30
2023-02-17T13:29:23.685Z,51.23
2023-02-17T13:31:56.758Z,51.30
2023-02-17T13:34:39.006Z,51.01
2023-02-17T13:37:28.207Z,50.97
2023-02-17T13:39:55.960Z,51.14
2023-02-17T13:42:34.440Z,51.15
2023-02-17T13:45:18.962Z,51.02
2023-02-17T13:47:50.261Z,51.05
2023-02-17T13:50:30.784Z,51.05
2023-02-17T13:52:59.708Z,51.21
2023-02-17T13:55:27.722Z,50.99
2023-02-17T13:57:58.521Z,50.97
2023-02-17T14:00:35.252Z,50.94
2023-02-17T14:03:23.674Z,50.91
2023-02-17T14:06:01.175Z,50.95
2023-02-17T14:08:40.944Z,51.00
2023-02-17T14:11:20.606Z,50.86
2023-02-17T14:13:51.810Z,50.94
2023-02-17T14:16:39.236Z,50.80
2023-02-17T14:19:20.190Z,50.70
2023-02-17T14:21:58.045Z,50.67
2023-02-17T14:24:35.762Z,50.77
2023-02-17T14:27:14.069Z,50.72
2023-02-17T14:29:46.426Z,50.92
2023-02-17T14:32:35.941Z,50.70
2023-02-17T14:35:12.954Z,50.75
2023-02-17T14:37:43.220Z,50.92
2023-02-17T14:40:24.013Z,50.86
2023-02-17T14:42:52.635Z,50.92
2023-02-17T14:45:20.692Z,50.81
2023-02-17T14:47:48.555Z,50.79
2023-02-17T14:50:17.435Z,50.78
2023-02-17T14:52:49.822Z,50.83
2023-02-17T14:55:49.991Z,50.75
2023-02-17T14:58:23.928Z,50.72
2023-02-17T15:00:54.457Z,50.83
2023-02-17T15:03:22.771Z,50.66
2023-02-17T15:05:51.219Z,50.72
2023-02-17T15:08:33.187Z,50.74
2023-02-17T15:11:02.348Z,50.94
2023-02-17T15:13:31.781Z,50.93
2023-02-17T15:16:00.269Z,51.08
2023-02-17T15:18:28.375Z,51.07
2023-02-17T15:20:57.331Z,51.10
2023-02-17T15:23:28.232Z,50.92
2023-02-17T15:25:56.632Z,50.94
2023-02-17T15:28:24.437Z,50.99
2023-02-17T15:30:55.845Z,50.90
2023-02-17T15:33:24.661Z,51.32
2023-02-17T15:35:54.575Z,51.14
2023-02-17T15:38:23.901Z,51.10
2023-02-17T15:40:51.826Z,51.25
2023-02-17T15:43:22.651Z,51.23
2023-02-17T15:45:50.434Z,51.19
2023-02-17T15:48:26.278Z,51.28
2023-02-17T15:50:54.228Z,51.40
2023-02-17T15:53:22.718Z,51.50
2023-02-17T15:55:52.105Z,51.49
2023-02-17T15:58:22.644Z,51.64
2023-02-17T16:00:51.254Z,51.71
2023-02-17T16:03:19.228Z,51.92
2023-02-17T16:05:47.860Z,51.73
2023-02-17T16:08:15.653Z,51.84
2023-02-17T16:10:45.495Z,51.88
2023-02-17T16:13:16.409Z,51.89
2023-02-17T16:15:45.963Z,51.97
2023-02-17T16:18:23.611Z,52.11
2023-02-17T16:20:52.474Z,52.25
2023-02-17T16:23:20.478Z,52.19
2023-02-17T16:25:50.046Z,52.15
2023-02-17T16:28:21.544Z,52.10
2023-02-17T16:30:49.848Z,52.06
2023-02-17T16:33:19.237Z,51.82
2023-02-17T16:35:50.644Z,51.99
2023-02-17T16:38:23.578Z,52.03
2023-02-17T16:40:53.369Z,52.03
2023-02-17T16:43:26.826Z,51.93
2023-02-17T16:46:01.926Z,51.99
2023-02-17T16:48:34.081Z,52.06
2023-02-17T16:51:02.328Z,52.02
2023-02-17T16:53:30.148Z,51.94
2023-02-17T16:55:57.978Z,51.86
2023-02-17T16:58:26.789Z,51.76
2023-02-17T17:00:55.937Z,51.66
2023-02-17T17:03:23.930Z,51.73
2023-02-17T17:05:52.727Z,51.70
2023-02-17T17:08:21.945Z,51.76
2023-02-17T17:10:50.245Z,51.68
2023-02-17T17:13:18.072Z,51.83
2023-02-17T17:15:46.484Z,51.70
2023-02-17T17:18:21.125Z,51.63
2023-02-17T17:20:49.887Z,51.79
2023-02-17T17:23:19.003Z,51.84
2023-02-17T17:25:48.558Z,51.97
2023-02-17T17:28:19.468Z,52.22
2023-02-17T17:30:48.179Z,52.54
2023-02-17T17:33:16.445Z,52.64
2023-02-17T17:35:44.132Z,52.66
2023-02-17T17:38:16.339Z,52.73
2023-02-17T17:40:53.315Z,53.01
2023-02-17T17:43:23.519Z,53.10
2023-02-17T17:45:52.151Z,53.25
2023-02-17T17:48:20.039Z,53.29
2023-02-17T17:50:49.827Z,53.41
2023-02-17T17:53:18.273Z,53.41
2023-02-17T17:55:47.951Z,53.50
2023-02-17T17:58:17.141Z,53.67
2023-02-17T18:00:45.368Z,53.74
2023-02-17T18:03:13.139Z,53.70
2023-02-17T18:05:40.874Z,54.01
2023-02-17T18:08:10.139Z,53.84
2023-02-17T18:10:40.342Z,53.89
2023-02-17T18:13:10.359Z,53.95
2023-02-17T18:15:38.388Z,53.89
2023-02-17T18:18:07.001Z,53.82
2023-02-17T18:20:34.912Z,53.95
2023-02-17T18:23:03.281Z,54.10
2023-02-17T18:25:31.325Z,54.01
2023-02-17T18:27:59.371Z,54.13
2023-02-17T18:30:27.409Z,54.11
2023-02-17T18:32:55.541Z,54.30
2023-02-17T18:35:23.278Z,54.15
2023-02-17T18:37:51.012Z,54.37
2023-02-17T18:40:20.511Z,54.34
2023-02-17T18:42:48.458Z,54.37
2023-02-17T18:45:16.917Z,54.33
2023-02-17T18:47:47.081Z,54.64
2023-02-17T18:50:16.401Z,54.75
2023-02-17T18:52:44.839Z,54.71
2023-02-17T18:55:13.669Z,54.89
2023-02-17T18:57:42.156Z,54.95
2023-02-17T19:00:12.986Z,55.02
2023-02-17T19:02:41.591Z,55.36
2023-02-17T19:05:11.697Z,55.30
2023-02-17T19:07:39.651Z,55.44
2023-02-17T19:10:08.344Z,55.49
2023-02-17T19:12:37.922Z,55.50
2023-02-17T19:15:07.452Z,55.44
2023-02-17T19:17:35.664Z,55.62
2023-02-17T19:20:04.318Z,55.53
2023-02-17T19:22:38.702Z,55.68
2023-02-17T19:25:08.204Z,55.66
2023-02-17T19:27:39.599Z,55.74
2023-02-17T19:30:11.396Z,55.80
2023-02-17T19:32:40.524Z,55.72
2023-02-17T19:35:11.499Z,55.78
2023-02-17T19:37:39.532Z,55.92
2023-02-17T19:40:08.172Z,55.73
2023-02-17T19:42:37.161Z,55.66
2023-02-17T19:45:06.087Z,55.74
2023-02-17T19:47:33.779Z,55.65
2023-02-17T19:50:01.469Z,55.58
2023-02-17T19:52:29.220Z,55.63
2023-02-17T19:54:56.975Z,55.77
2023-02-17T19:57:24.747Z,55.72
2023-02-17T19:59:53.259Z,55.73
2023-02-17T20:02:21.080Z,55.74
2023-02-17T20:04:49.068Z,55.67
2023-02-17T20:07:16.826Z,55.50
2023-02-17T20:09:44.651Z,55.48
2023-02-17T20:12:12.526Z,55.51
2023-02-17T20:14:42.054Z,55.34
2023-02-17T20:17:09.785Z,55.46
2023-02-17T20:19:39.367Z,55.24
2023-02-17T20:22:08.578Z,55.48
2023-02-17T20:24:37.855Z,55.35
2023-02-17T20:27:05.763Z,55.40
2023-02-17T20:29:35.402Z,55.55
2023-02-17T20:32:03.714Z,55.56
2023-02-17T20:34:37.412Z,55.42
2023-02-17T20:37:07.231Z,55.18
2023-02-17T20:39:36.196Z,55.30
2023-02-17T20:42:05.333Z,55.26
2023-02-17T20:44:34.045Z,55.43
2023-02-17T20:47:02.501Z,55.19
2023-02-17T20:49:30.371Z,55.03
2023-02-17T20:51:58.258Z,55.25
2023-02-17T20:54:47.436Z,55.25
2023-02-17T20:57:15.319Z,55.33
2023-02-17T20:59:43.129Z,55.27
2023-02-17T21:02:11.499Z,55.13
2023-02-17T21:04:39.268Z,55.26
2023-02-17T21:07:07.156Z,55.08
2023-02-17T21:09:35.116Z,55.08
2023-02-17T21:12:03.623Z,55.16
2023-02-17T21:14:31.789Z,55.07
2023-02-17T21:17:00.008Z,55.01
2023-02-17T21:19:29.598Z,55.03
2023-02-17T21:21:57.724Z,55.12
2023-02-17T21:24:25.609Z,55.15
2023-02-17T21:26:53.555Z,54.99
2023-02-17T21:29:21.383Z,54.92
2023-02-17T21:31:49.498Z,55.03
2023-02-17T21:34:17.338Z,55.01
2023-02-17T21:36:45.520Z,54.82
2023-02-17T21:39:13.413Z,54.87
2023-02-17T21:41:43.908Z,54.87
2023-02-17T21:44:31.294Z,54.81
2023-02-17T21:47:02.184Z,54.69
2023-02-17T21:49:29.996Z,54.91
2023-02-17T21:51:57.972Z,54.66
2023-02-17T21:54:25.688Z,54.75
2023-02-17T21:56:53.478Z,54.59
2023-02-17T21:59:22.357Z,54.45
2023-02-17T22:01:51.919Z,54.58
2023-02-17T22:04:20.670Z,54.56
2023-02-17T22:06:48.423Z,54.50
2023-02-17T22:09:18.106Z,54.35
2023-02-17T22:11:47.130Z,54.52
2023-02-17T22:14:19.236Z,54.44
2023-02-17T22:16:48.228Z,54.47
2023-02-17T22:19:20.860Z,54.34
2023-02-17T22:21:50.195Z,54.33
2023-02-17T22:24:23.048Z,54.52
2023-02-17T22:26:51.075Z,54.42
2023-02-17T22:29:18.924Z,54.33
2023-02-17T22:31:47.733Z,54.27
2023-02-17T22:34:16.589Z,54.35
2023-02-17T22:36:44.509Z,54.30
2023-02-17T22:39:12.479Z,54.27
2023-02-17T22:41:40.875Z,54.28
2023-02-17T22:44:08.967Z,54.27
2023-02-17T22:46:36.803Z,54.27
2023-02-17T22:49:05.418Z,54.15
2023-02-17T22:51:38.650Z,54.17
2023-02-17T22:54:08.189Z,54.10
2023-02-17T22:56:36.681Z,53.94
2023-02-17T22:59:05.559Z,54.11
2023-02-17T23:01:36.418Z,54.07
2023-02-17T23:04:05.854Z,53.95
2023-02-17T23:06:37.527Z,54.08
2023-02-17T23:09:07.290Z,54.44
2023-02-17T23:11:52.330Z,54.42
2023-02-17T23:14:23.876Z,54.32
2023-02-17T23:16:53.349Z,54.41
2023-02-17T23:19:23.357Z,54.36
2023-02-17T23:21:55.805Z,54.21
2023-02-17T23:24:25.420Z,54.14
2023-02-17T23:26:55.357Z,54.01
2023-02-17T23:29:23.897Z,54.06
2023-02-17T23:31:52.273Z,54.13
2023-02-17T23:34:20.481Z,53.99
2023-02-17T23:36:48.641Z,54.11
2023-02-17T23:39:17.115Z,53.95
2023-02-17T23:41:44.941Z,53.92
2023-02-17T23:44:14.584Z,53.85
2023-02-17T23:46:44.583Z,53.90
2023-02-17T23:49:17.268Z,53.66
2023-02-17T23:51:46.839Z,53.78
2023-02-17T23:54:15.789Z,53.84
2023-02-17T23:56:43.907Z,53.65
2023-02-17T23:59:11.945Z,53.58
